createdAt,value
2019-05-26T06:14:54.011Z,8.18
2019-05-26T06:17:24.506Z,8.40
2019-05-26T06:19:53.928Z,8.60
2019-05-26T06:22:23.235Z,8.33
2019-05-26T06:24:52.483Z,8.97
2019-05-26T06:27:22.595Z,8.30
2019-05-26T06:29:58.980Z,8.15
2019-05-26T06:32:23.326Z,8.43
2019-05-26T06:34:52.507Z,8.03
2019-05-26T06:37:21.787Z,7.83
2019-05-26T06:39:51.062Z,7.10
2019-05-26T06:42:20.491Z,7.40
2019-05-26T06:44:53.534Z,6.70
2019-05-26T06:47:51.514Z,6.57
2019-05-26T06:50:21.955Z,7.07
2019-05-26T06:52:53.263Z,6.00
2019-05-26T06:55:22.535Z,6.10
2019-05-26T06:57:51.799Z,5.73
2019-05-26T07:00:21.257Z,5.90
2019-05-26T07:02:50.637Z,6.47
2019-05-26T07:05:19.797Z,5.63
2019-05-26T07:07:49.066Z,6.33
2019-05-26T07:10:18.503Z,6.27
2019-05-26T07:12:47.709Z,6.40
2019-05-26T07:15:18.507Z,6.50
2019-05-26T07:17:47.835Z,6.00
2019-05-26T07:20:24.403Z,4.60
2019-05-26T07:22:53.748Z,4.70
2019-05-26T07:25:24.090Z,5.20
2019-05-26T07:27:53.387Z,4.70
2019-05-26T07:30:23.616Z,4.50
2019-05-26T07:32:52.999Z,5.20
2019-05-26T07:35:22.470Z,4.60
2019-05-26T07:37:51.835Z,4.47
2019-05-26T07:40:21.242Z,4.30
2019-05-26T07:42:50.700Z,4.37
2019-05-26T07:45:20.168Z,4.60
2019-05-26T07:47:49.400Z,4.80
2019-05-26T07:50:18.812Z,4.70
2019-05-26T07:52:48.142Z,3.70
2019-05-26T07:55:17.611Z,4.80
2019-05-26T07:57:47.023Z,4.53
2019-05-26T08:00:17.039Z,3.67
2019-05-26T08:02:46.273Z,3.93
2019-05-26T08:05:15.460Z,3.17
2019-05-26T08:07:44.819Z,4.10
2019-05-26T08:10:14.286Z,4.73
2019-05-26T08:12:43.670Z,4.70
2019-05-26T08:15:13.504Z,4.83
2019-05-26T08:17:42.874Z,4.27
2019-05-26T08:20:12.460Z,4.67
2019-05-26T08:22:41.963Z,5.77
2019-05-26T08:25:11.252Z,5.50
2019-05-26T08:27:40.497Z,4.17
2019-05-26T08:30:10.040Z,3.77
2019-05-26T08:32:39.373Z,4.13
2019-05-26T08:35:10.091Z,4.50
2019-05-26T08:37:39.343Z,4.20
2019-05-26T08:40:20.824Z,4.37
2019-05-26T08:42:51.143Z,4.77
2019-05-26T08:45:22.001Z,4.40
2019-05-26T08:47:52.026Z,4.67
2019-05-26T08:50:21.479Z,4.97
2019-05-26T08:52:51.853Z,4.63
2019-05-26T08:55:21.403Z,4.70
2019-05-26T08:57:50.797Z,4.60
2019-05-26T09:00:20.169Z,4.63
2019-05-26T09:02:49.993Z,4.33
2019-05-26T09:05:19.707Z,5.17
2019-05-26T09:07:48.996Z,4.63
2019-05-26T09:10:18.254Z,4.70
2019-05-26T09:12:59.605Z,5.30
2019-05-26T09:15:19.664Z,4.83
2019-05-26T09:17:49.116Z,4.57
2019-05-26T09:20:18.998Z,5.03
2019-05-26T09:22:48.286Z,5.53
2019-05-26T09:25:17.693Z,4.00
2019-05-26T09:27:49.077Z,3.80
2019-05-26T09:30:18.795Z,3.80
2019-05-26T09:32:48.020Z,4.17
2019-05-26T09:35:17.424Z,3.03
2019-05-26T09:37:46.762Z,4.23
2019-05-26T09:40:17.010Z,4.70
2019-05-26T09:42:46.284Z,3.60
2019-05-26T09:45:15.816Z,3.57
2019-05-26T09:47:45.289Z,3.87
2019-05-26T09:50:15.380Z,4.47
2019-05-26T09:52:44.554Z,4.00
2019-05-26T09:55:15.248Z,3.90
2019-05-26T09:57:44.403Z,3.90
2019-05-26T10:00:16.145Z,4.27
2019-05-26T10:02:53.767Z,3.70
2019-05-26T10:05:22.996Z,4.30
2019-05-26T10:07:52.393Z,4.17
2019-05-26T10:10:21.875Z,3.83
2019-05-26T10:12:51.234Z,6.70
2019-05-26T10:15:21.006Z,3.87
2019-05-26T10:17:52.806Z,3.97
2019-05-26T10:20:22.186Z,4.67
2019-05-26T10:22:51.802Z,4.43
2019-05-26T10:25:21.090Z,4.17
2019-05-26T10:27:57.802Z,4.80
2019-05-26T10:30:27.146Z,4.23
2019-05-26T10:32:56.597Z,4.13
2019-05-26T10:35:25.862Z,4.47
2019-05-26T10:37:55.012Z,4.47
2019-05-26T10:40:24.345Z,3.80
2019-05-26T10:42:53.697Z,5.20
2019-05-26T10:45:24.739Z,3.50
2019-05-26T10:47:54.108Z,4.50
2019-05-26T10:50:23.455Z,3.97
2019-05-26T10:52:54.539Z,3.53
2019-05-26T10:55:26.419Z,4.77
2019-05-26T10:57:59.885Z,4.53
2019-05-26T11:00:35.219Z,4.10
2019-05-26T11:03:04.545Z,3.63
2019-05-26T11:05:34.044Z,3.67
2019-05-26T11:08:03.607Z,3.47
2019-05-26T11:10:33.018Z,3.20
2019-05-26T11:13:05.177Z,3.50
2019-05-26T11:15:39.867Z,3.60
2019-05-26T11:18:09.162Z,3.17
2019-05-26T11:20:38.549Z,3.43
2019-05-26T11:23:07.888Z,3.60
2019-05-26T11:25:37.488Z,3.50
2019-05-26T11:28:14.983Z,5.33
2019-05-26T11:34:12.055Z,5.60
2019-05-26T11:36:41.410Z,6.27
2019-05-26T11:39:12.736Z,16.60
2019-05-26T11:41:41.974Z,8.00
2019-05-26T11:44:17.842Z,8.40
2019-05-26T11:46:42.157Z,6.20
2019-05-26T11:49:11.290Z,5.90
2019-05-26T11:51:40.591Z,5.77
2019-05-26T11:54:09.795Z,4.73
2019-05-26T11:56:39.014Z,4.80
2019-05-26T11:59:08.311Z,5.67
2019-05-26T12:01:37.642Z,5.63
2019-05-26T12:04:07.074Z,5.50
2019-05-26T12:06:36.511Z,4.50
2019-05-26T12:09:08.096Z,4.63
2019-05-26T12:11:37.361Z,3.90
2019-05-26T12:14:06.862Z,3.87
2019-05-26T12:16:40.626Z,3.80
2019-05-26T12:19:10.055Z,3.90
2019-05-26T12:21:39.455Z,2.93
2019-05-26T12:24:08.775Z,3.50
2019-05-26T12:26:51.460Z,3.30
2019-05-26T12:29:21.035Z,3.90
2019-05-26T12:31:50.381Z,3.50
2019-05-26T12:34:19.834Z,3.43
2019-05-26T12:36:49.273Z,3.20
2019-05-26T12:39:18.550Z,3.60
2019-05-26T12:41:47.933Z,3.30
2019-05-26T12:44:17.333Z,3.43
2019-05-26T12:46:46.754Z,4.40
2019-05-26T12:49:16.068Z,2.80
2019-05-26T12:51:45.577Z,3.00
2019-05-26T12:54:14.955Z,2.80
2019-05-26T12:56:44.239Z,2.80
2019-05-26T12:59:16.873Z,3.27
2019-05-26T13:01:46.307Z,3.40
2019-05-26T13:04:15.629Z,3.17
2019-05-26T13:06:45.179Z,3.03
2019-05-26T13:09:14.473Z,2.70
2019-05-26T13:11:43.778Z,2.70
2019-05-26T13:14:13.243Z,2.70
2019-05-26T13:16:42.597Z,2.90
2019-05-26T13:19:12.516Z,3.20
2019-05-26T13:21:41.899Z,2.50
2019-05-26T13:24:11.211Z,2.60
2019-05-26T13:26:40.886Z,2.53
2019-05-26T13:29:10.473Z,2.70
2019-05-26T13:31:40.110Z,2.80
2019-05-26T13:34:10.771Z,2.70
2019-05-26T13:36:40.240Z,2.73
2019-05-26T13:39:10.083Z,3.20
2019-05-26T13:41:39.417Z,3.07
2019-05-26T13:44:08.941Z,3.17
2019-05-26T13:46:38.536Z,2.80
2019-05-26T13:49:07.944Z,3.20
2019-05-26T13:51:40.408Z,2.70
2019-05-26T13:54:10.014Z,2.70
2019-05-26T13:56:39.447Z,2.90
2019-05-26T13:59:08.907Z,2.97
2019-05-26T14:01:38.252Z,2.70
2019-05-26T14:04:15.342Z,3.37
2019-05-26T14:06:47.227Z,2.67
2019-05-26T14:09:16.644Z,2.63
2019-05-26T14:11:48.906Z,2.63
2019-05-26T14:14:18.326Z,2.30
2019-05-26T14:16:49.372Z,2.30
2019-05-26T14:19:21.127Z,2.37
2019-05-26T14:21:50.385Z,2.40
2019-05-26T14:24:19.823Z,2.60
2019-05-26T14:26:49.274Z,2.40
2019-05-26T14:29:18.608Z,2.50
2019-05-26T14:31:48.380Z,2.50
2019-05-26T14:34:17.777Z,2.73
2019-05-26T14:36:46.998Z,2.40
2019-05-26T14:39:16.209Z,2.30
2019-05-26T14:41:45.614Z,2.50
2019-05-26T14:44:15.017Z,2.37
2019-05-26T14:46:44.526Z,2.67
2019-05-26T14:49:13.906Z,2.53
2019-05-26T14:51:43.444Z,2.70
2019-05-26T14:54:12.777Z,2.53
2019-05-26T14:56:42.205Z,2.30
2019-05-26T14:59:11.455Z,2.33
2019-05-26T15:01:42.399Z,2.17
2019-05-26T15:04:11.662Z,2.27
2019-05-26T15:06:43.555Z,2.63
2019-05-26T15:09:24.730Z,2.70
2019-05-26T15:11:46.602Z,2.33
2019-05-26T15:14:16.053Z,2.57
2019-05-26T15:16:45.377Z,2.40
2019-05-26T15:19:14.733Z,1.83
2019-05-26T15:21:45.883Z,2.33
2019-05-26T15:24:15.246Z,2.40
2019-05-26T15:26:44.731Z,2.60
2019-05-26T15:29:14.046Z,2.40
2019-05-26T15:31:43.479Z,2.60
2019-05-26T15:34:15.285Z,2.07
2019-05-26T15:36:44.707Z,2.33
2019-05-26T15:39:15.065Z,3.57
2019-05-26T15:41:44.430Z,3.00
2019-05-26T15:44:13.783Z,2.63
2019-05-26T15:46:45.921Z,2.60
2019-05-26T15:49:26.148Z,4.27
2019-05-26T15:51:55.854Z,2.60
2019-05-26T15:54:25.349Z,2.50
2019-05-26T15:56:54.888Z,2.70
2019-05-26T15:59:31.449Z,3.10
2019-05-26T16:02:00.856Z,2.90
2019-05-26T16:04:30.282Z,2.33
2019-05-26T16:06:59.642Z,2.73
2019-05-26T16:09:31.714Z,2.57
2019-05-26T16:15:29.056Z,3.03
2019-05-26T16:17:58.288Z,2.40
2019-05-26T16:20:27.662Z,2.50
2019-05-26T16:22:56.905Z,2.23
2019-05-26T16:25:26.458Z,2.60
2019-05-26T16:27:55.719Z,2.33
2019-05-26T16:30:29.261Z,2.83
2019-05-26T16:32:58.818Z,2.50
2019-05-26T16:35:34.523Z,2.80
2019-05-26T16:38:03.960Z,2.83
2019-05-26T16:40:33.381Z,2.80
2019-05-26T16:43:02.921Z,2.47
2019-05-26T16:45:37.159Z,2.53
2019-05-26T16:48:10.659Z,2.57
2019-05-26T16:50:45.427Z,2.50
2019-05-26T16:53:18.322Z,2.90
2019-05-26T16:55:47.871Z,2.47
2019-05-26T16:58:18.539Z,2.47
2019-05-26T17:00:48.316Z,2.20
2019-05-26T17:03:18.841Z,2.40
2019-05-26T17:06:05.262Z,2.43
2019-05-26T17:08:37.454Z,2.20
2019-05-26T17:11:24.450Z,2.30
2019-05-26T17:13:54.290Z,2.30
2019-05-26T17:16:24.464Z,2.40
2019-05-26T17:18:54.161Z,2.80
2019-05-26T17:21:25.687Z,2.60
2019-05-26T17:23:55.122Z,2.10
2019-05-26T17:26:24.618Z,2.93
2019-05-26T17:28:55.926Z,2.60
2019-05-26T17:31:25.367Z,2.20
2019-05-26T17:33:57.403Z,2.37
2019-05-26T17:36:27.090Z,3.17
2019-05-26T17:38:56.415Z,3.00
2019-05-26T17:41:25.931Z,2.47
2019-05-26T17:43:57.486Z,2.63
2019-05-26T17:46:28.801Z,2.47
2019-05-26T17:48:58.355Z,2.30
2019-05-26T17:51:28.887Z,2.43
2019-05-26T17:53:58.275Z,2.63
2019-05-26T17:56:27.627Z,2.53
2019-05-26T17:58:58.756Z,2.87
2019-05-26T18:01:36.112Z,2.57
2019-05-26T18:04:05.305Z,2.37
2019-05-26T18:06:34.553Z,2.93
2019-05-26T18:09:08.275Z,2.70
2019-05-26T18:11:37.754Z,2.70
2019-05-26T18:14:07.302Z,2.50
2019-05-26T18:16:36.582Z,2.80
2019-05-26T18:19:05.837Z,2.63
2019-05-26T18:21:35.218Z,2.80
2019-05-26T18:24:04.819Z,2.60
2019-05-26T18:26:34.121Z,2.47
2019-05-26T18:29:03.544Z,2.80
2019-05-26T18:31:32.926Z,2.70
2019-05-26T18:34:02.352Z,2.30
2019-05-26T18:36:31.923Z,2.97
2019-05-26T18:39:08.262Z,2.90
2019-05-26T18:41:37.500Z,3.20
2019-05-26T18:44:06.679Z,2.50
2019-05-26T18:46:35.893Z,2.83
2019-05-26T18:49:06.319Z,2.50
2019-05-26T18:51:44.874Z,3.00
2019-05-26T18:54:14.138Z,2.30
2019-05-26T18:56:43.566Z,2.97
2019-05-26T18:59:14.030Z,3.00
2019-05-26T19:01:43.273Z,3.70
2019-05-26T19:04:12.568Z,3.77
2019-05-26T19:06:41.956Z,3.13
2019-05-26T19:09:11.296Z,3.80
2019-05-26T19:11:40.655Z,4.40
2019-05-26T19:14:09.886Z,3.93
2019-05-26T19:16:46.938Z,3.60
2019-05-26T19:19:16.216Z,3.80
2019-05-26T19:21:45.468Z,4.13
2019-05-26T19:24:14.735Z,3.43
2019-05-26T19:26:43.982Z,3.13
2019-05-26T19:29:13.421Z,4.03
2019-05-26T19:31:42.880Z,3.57
2019-05-26T19:34:12.213Z,3.30
2019-05-26T19:36:43.935Z,3.07
2019-05-26T19:39:13.316Z,3.00
2019-05-26T19:41:43.073Z,3.10
2019-05-26T19:44:13.357Z,3.20
2019-05-26T19:46:42.893Z,3.00
2019-05-26T19:49:12.389Z,3.23
2019-05-26T19:51:42.835Z,3.43
2019-05-26T19:54:12.421Z,3.50
2019-05-26T19:56:41.860Z,5.00
2019-05-26T19:59:12.919Z,4.60
2019-05-26T20:01:42.363Z,4.53
2019-05-26T20:04:11.720Z,4.57
2019-05-26T20:06:43.819Z,5.00
2019-05-26T20:09:12.331Z,6.67
2019-05-26T20:11:41.929Z,4.13
2019-05-26T20:14:11.507Z,4.47
2019-05-26T20:16:41.081Z,4.47
2019-05-26T20:19:13.152Z,5.33
2019-05-26T20:21:42.876Z,4.63
2019-05-26T20:24:14.713Z,4.67
2019-05-26T20:26:44.346Z,4.47
2019-05-26T20:29:13.659Z,4.30
2019-05-26T20:31:42.933Z,5.47
2019-05-26T20:34:12.319Z,5.67
2019-05-26T20:36:43.902Z,6.20
2019-05-26T20:39:13.186Z,6.67
2019-05-26T20:41:42.450Z,6.23
2019-05-26T20:44:11.622Z,6.77
2019-05-26T20:46:40.921Z,6.27
2019-05-26T20:49:10.122Z,6.30
2019-05-26T20:51:39.322Z,6.90
2019-05-26T20:54:08.510Z,6.33
2019-05-26T20:56:37.872Z,6.33
2019-05-26T20:59:07.152Z,6.63
2019-05-26T21:01:36.366Z,6.50
2019-05-26T21:04:05.702Z,6.77
2019-05-26T21:06:34.983Z,7.40
2019-05-26T21:09:10.911Z,7.33
2019-05-26T21:11:38.215Z,7.80
2019-05-26T21:14:07.600Z,7.57
2019-05-26T21:16:37.134Z,7.33
2019-05-26T21:19:07.739Z,8.53
2019-05-26T21:21:37.059Z,8.23
2019-05-26T21:24:06.498Z,7.93
2019-05-26T21:26:35.862Z,9.20
2019-05-26T21:29:05.208Z,8.33
2019-05-26T21:31:34.476Z,8.77
2019-05-26T21:34:03.675Z,8.20
2019-05-26T21:36:32.984Z,7.90
2019-05-26T21:39:02.215Z,6.90
2019-05-26T21:41:31.391Z,6.40
2019-05-26T21:44:01.018Z,5.60
2019-05-26T21:46:30.375Z,5.73
2019-05-26T21:49:09.386Z,5.10
2019-05-26T21:51:38.780Z,5.03
2019-05-26T21:54:08.001Z,6.37
2019-05-26T21:56:37.276Z,5.73
2019-05-26T21:59:06.623Z,5.63
2019-05-26T22:01:35.939Z,6.10
2019-05-26T22:04:05.840Z,5.63
2019-05-26T22:06:35.095Z,6.27
2019-05-26T22:09:05.479Z,6.70
2019-05-26T22:11:34.727Z,6.93
2019-05-26T22:14:04.093Z,6.70
2019-05-26T22:16:33.472Z,6.60
2019-05-26T22:19:02.666Z,6.73
2019-05-26T22:21:34.538Z,6.70
2019-05-26T22:24:04.089Z,5.90
2019-05-26T22:26:33.303Z,5.60
2019-05-26T22:29:04.590Z,6.00
2019-05-26T22:31:33.911Z,6.83
2019-05-26T22:34:03.281Z,6.60
2019-05-26T22:36:32.681Z,6.70
2019-05-26T22:39:02.247Z,7.10
2019-05-26T22:41:31.648Z,9.00
2019-05-26T22:44:01.002Z,9.90
2019-05-26T22:46:30.256Z,9.30
2019-05-26T22:48:59.421Z,9.23
2019-05-26T22:51:28.691Z,8.93
2019-05-26T22:53:57.867Z,9.33
2019-05-26T22:56:27.124Z,9.07
2019-05-26T22:58:56.367Z,8.73
2019-05-26T23:01:25.911Z,6.20
2019-05-26T23:03:58.407Z,5.77
2019-05-26T23:06:27.628Z,6.50
2019-05-26T23:08:56.888Z,6.50
2019-05-26T23:11:26.212Z,6.10
2019-05-26T23:13:55.464Z,6.27
2019-05-26T23:16:24.870Z,7.50
2019-05-26T23:18:54.044Z,6.50
2019-05-26T23:21:23.237Z,6.63
2019-05-26T23:23:52.410Z,6.00
2019-05-26T23:26:21.637Z,5.70
2019-05-26T23:28:50.889Z,6.23
2019-05-26T23:31:20.294Z,6.03
2019-05-26T23:33:50.490Z,7.00
2019-05-26T23:36:19.911Z,7.17
2019-05-26T23:38:49.169Z,7.53
2019-05-26T23:41:18.493Z,7.00
2019-05-26T23:43:47.734Z,7.20
2019-05-26T23:46:17.138Z,7.30
2019-05-26T23:48:46.517Z,6.80
2019-05-26T23:51:15.818Z,7.07
2019-05-26T23:53:45.015Z,7.40
2019-05-26T23:56:14.286Z,7.47
2019-05-26T23:58:43.572Z,7.93
